Time;durP1;ratioP1;P1;durP2;ratioP2;P2;SDS_P1;SDS_P2;PMS_P1;PMS_P2;Temp;Humidity;BMP_temperature;BMP_pressure;BME280_temperature;BME280_humidity;BME280_pressure;Samples;Min_cycle;Max_cycle;Signal;HPM_P1;HPM_P2
2024/05/04 00:00:51;;;;;;;12.63;4.95;;;;;;;7.80;100.00;101567.97;5394246;26;93821;-79
2024/05/04 00:03:17;;;;;;;12.55;5.28;;;;;;;7.69;100.00;101548.94;5389461;26;93943;-79
2024/05/04 00:05:42;;;;;;;13.93;4.70;;;;;;;7.65;100.00;101549.91;5396414;26;94907;-79
2024/05/04 00:08:07;;;;;;;8.40;4.32;;;;;;;7.74;100.00;101560.19;5395480;26;94543;-79
2024/05/04 00:10:32;;;;;;;11.57;5.25;;;;;;;7.78;100.00;101569.72;5394295;26;93786;-79
2024/05/04 00:12:58;;;;;;;16.38;5.22;;;;;;;7.54;100.00;101533.50;5393434;26;93717;-79
2024/05/04 00:15:23;;;;;;;10.60;4.60;;;;;;;7.61;100.00;101545.63;5358292;26;94581;-79
2024/05/04 00:17:48;;;;;;;13.18;4.80;;;;;;;7.64;100.00;101549.91;5366589;26;94316;-78
2024/05/04 00:20:14;;;;;;;10.23;5.32;;;;;;;7.48;100.00;101526.63;5386036;26;94226;-79
2024/05/04 00:22:39;;;;;;;10.45;4.88;;;;;;;7.72;100.00;101564.59;5364728;26;93950;-78
2024/05/04 00:25:08;;;;;;;11.57;4.53;;;;;;;7.73;100.00;101575.97;5356696;26;99891;-79
2024/05/04 00:27:33;;;;;;;10.20;4.95;;;;;;;7.70;100.00;101569.03;5395977;26;94364;-79
2024/05/04 00:29:58;;;;;;;10.18;4.57;;;;;;;7.69;100.00;101571.69;5393024;26;93781;-79
2024/05/04 00:32:24;;;;;;;11.52;4.28;;;;;;;7.67;100.00;101570.81;5386425;26;93874;-79
2024/05/04 00:34:49;;;;;;;11.63;4.78;;;;;;;7.48;100.00;101544.97;5394585;26;94266;-79
2024/05/04 00:37:14;;;;;;;12.43;4.80;;;;;;;7.59;100.00;101563.09;5390702;26;113554;-79
2024/05/04 00:39:41;;;;;;;9.70;4.97;;;;;;;7.48;100.00;101546.72;5389851;26;93884;-79
2024/05/04 00:42:06;;;;;;;11.52;5.10;;;;;;;7.45;100.00;101536.28;5389907;26;105387;-78
2024/05/04 00:44:31;;;;;;;9.10;4.32;;;;;;;7.58;100.00;101564.88;5358300;26;96462;-79
2024/05/04 00:46:57;;;;;;;9.23;4.03;;;;;;;7.58;100.00;101561.38;5392577;26;94716;-78
2024/05/04 00:49:22;;;;;;;9.32;4.35;;;;;;;7.54;100.00;101560.56;5390919;26;94863;-78
2024/05/04 00:51:48;;;;;;;9.57;4.45;;;;;;;7.55;100.00;101567.53;5393206;26;93826;-78
2024/05/04 00:54:14;;;;;;;8.07;3.85;;;;;;;7.41;100.00;101551.19;5389678;26;94782;-79
2024/05/04 00:56:40;;;;;;;8.70;3.92;;;;;;;7.37;100.00;101543.44;5393364;26;94240;-79
2024/05/04 00:59:05;;;;;;;10.15;4.53;;;;;;;7.50;100.00;101573.78;5390651;26;94201;-79
2024/05/04 01:01:32;;;;;;;13.95;4.13;;;;;;;7.31;100.00;101533.94;5362053;26;93909;-79
2024/05/04 01:03:57;;;;;;;9.25;4.38;;;;;;;7.48;100.00;101571.16;5397935;26;94372;-78
2024/05/04 01:06:23;;;;;;;9.48;4.00;;;;;;;7.44;100.00;101560.75;5392117;26;94868;-77
2024/05/04 01:08:49;;;;;;;11.55;4.47;;;;;;;7.25;100.00;101540.13;5370506;26;94424;-78
2024/05/04 01:11:15;;;;;;;8.55;4.93;;;;;;;7.46;100.00;101567.72;5398741;26;93751;-77
2024/05/04 01:13:44;;;;;;;10.32;4.50;;;;;;;7.42;100.00;101573.00;5399892;26;94464;-77
2024/05/04 01:16:09;;;;;;;10.23;3.75;;;;;;;7.44;100.00;101579.09;5394079;26;95260;-78
2024/05/04 01:18:35;;;;;;;8.10;3.90;;;;;;;7.42;100.00;101571.28;5364633;26;94753;-78
2024/05/04 01:21:01;;;;;;;9.32;4.13;;;;;;;7.39;100.00;101573.94;5393513;26;98802;-78
2024/05/04 01:23:26;;;;;;;11.18;4.22;;;;;;;7.23;100.00;101552.41;5396403;25;94833;-78
2024/05/04 01:25:52;;;;;;;7.15;3.38;;;;;;;7.38;100.00;101579.19;5389412;26;100160;-78
2024/05/04 01:28:18;;;;;;;8.73;3.78;;;;;;;7.39;100.00;101581.81;5375182;26;93813;-78
2024/05/04 01:30:43;;;;;;;7.53;3.67;;;;;;;7.39;100.00;101586.19;5391227;26;94606;-78
2024/05/04 01:33:09;;;;;;;9.00;3.88;;;;;;;7.20;100.00;101557.69;5396815;26;96509;-78
2024/05/04 01:35:34;;;;;;;10.32;4.22;;;;;;;7.20;100.00;101568.16;5394576;26;94104;-78
2024/05/04 01:37:59;;;;;;;9.95;4.60;;;;;;;7.33;100.00;101595.84;5392590;26;93755;-78
2024/05/04 01:40:25;;;;;;;9.65;4.85;;;;;;;7.28;100.00;101582.00;5389202;26;93854;-78
2024/05/04 01:42:50;;;;;;;13.98;4.50;;;;;;;7.30;100.00;101590.69;5394637;26;94486;-78
2024/05/04 01:45:16;;;;;;;9.07;3.95;;;;;;;7.26;100.00;101583.75;5383406;26;94427;-78
2024/05/04 01:47:41;;;;;;;7.65;3.80;;;;;;;7.31;100.00;101592.41;5354692;26;94826;-78
2024/05/04 01:50:07;;;;;;;8.50;3.83;;;;;;;7.33;100.00;101595.00;5392701;26;93750;-77
2024/05/04 01:52:32;;;;;;;14.70;4.45;;;;;;;7.32;100.00;101591.53;5390108;26;94213;-77
2024/05/04 01:54:58;;;;;;;8.20;3.60;;;;;;;7.10;100.00;101553.47;5389656;26;94346;-78
2024/05/04 01:57:23;;;;;;;9.82;4.18;;;;;;;7.30;100.00;101587.19;5389979;26;94246;-78
2024/05/04 01:59:48;;;;;;;8.82;4.13;;;;;;;7.27;100.00;101584.66;5392642;26;93771;-78
2024/05/04 02:02:14;;;;;;;7.28;3.92;;;;;;;7.36;100.00;101596.72;5362898;26;96593;-78
2024/05/04 02:04:39;;;;;;;8.07;3.65;;;;;;;7.34;100.00;101592.38;5387081;26;104373;-79
2024/05/04 02:07:04;;;;;;;8.40;3.88;;;;;;;7.33;100.00;101595.84;5388718;26;93787;-79
2024/05/04 02:09:30;;;;;;;9.85;3.80;;;;;;;7.38;100.00;101600.16;5384708;26;93812;-78
2024/05/04 02:11:55;;;;;;;6.40;3.38;;;;;;;7.33;100.00;101589.75;5387930;26;94225;-79
2024/05/04 02:14:20;;;;;;;9.20;4.47;;;;;;;7.39;100.00;101599.28;5367738;26;96401;-78
2024/05/04 02:16:46;;;;;;;10.95;3.92;;;;;;;7.37;100.00;101585.34;5380309;26;96248;-78
2024/05/04 02:19:11;;;;;;;8.95;3.55;;;;;;;7.16;100.00;101553.38;5384661;26;103107;-78
2024/05/04 02:21:36;;;;;;;8.57;3.53;;;;;;;7.19;100.00;101558.59;5385075;26;95222;-78
2024/05/04 02:24:01;;;;;;;6.60;3.38;;;;;;;7.32;100.00;101580.19;5361043;26;113881;-77
2024/05/04 02:26:28;;;;;;;10.95;3.50;;;;;;;7.20;100.00;101562.91;5355277;26;106317;-78
2024/05/04 02:28:54;;;;;;;8.15;4.35;;;;;;;7.25;100.00;101571.56;5390687;26;93889;-77
2024/05/04 02:31:22;;;;;;;7.00;3.38;;;;;;;7.32;100.00;101578.41;5358804;26;94599;-78
2024/05/04 02:33:48;;;;;;;9.02;4.05;;;;;;;7.28;100.00;101566.28;5391853;26;95933;-77
2024/05/04 02:36:14;;;;;;;9.65;3.78;;;;;;;7.24;100.00;101559.38;5384841;26;93677;-78
2024/05/04 02:38:39;;;;;;;6.82;3.47;;;;;;;7.14;100.00;101533.34;5392281;26;93822;-77
2024/05/04 02:41:05;;;;;;;5.60;3.13;;;;;;;7.30;100.00;101561.88;5359558;26;109330;-78
2024/05/04 02:43:30;;;;;;;11.15;4.05;;;;;;;7.39;100.00;101570.47;5357259;26;94535;-78
2024/05/04 02:45:55;;;;;;;8.38;3.33;;;;;;;7.30;100.00;101556.66;5354951;26;94706;-78
2024/05/04 02:48:21;;;;;;;13.15;4.13;;;;;;;7.35;100.00;101569.66;5357511;26;95176;-77
2024/05/04 02:50:46;;;;;;;12.52;4.00;;;;;;;7.34;100.00;101571.41;5358171;26;94272;-78
2024/05/04 02:53:11;;;;;;;9.88;3.90;;;;;;;7.36;100.00;101563.53;5369384;26;105850;-77
2024/05/04 02:55:37;;;;;;;8.45;3.45;;;;;;;7.34;100.00;101566.19;5355965;26;93793;-78
2024/05/04 02:58:04;;;;;;;10.40;3.67;;;;;;;7.26;100.00;101547.09;5359399;26;93894;-78
2024/05/04 03:00:32;;;;;;;7.97;3.78;;;;;;;7.30;100.00;101555.75;5359567;26;94863;-78
2024/05/04 03:02:57;;;;;;;7.90;3.88;;;;;;;7.30;100.00;101561.88;5354647;26;96340;-78
2024/05/04 03:05:23;;;;;;;7.13;3.42;;;;;;;7.18;100.00;101545.50;5359837;26;94987;-79
2024/05/04 03:07:52;;;;;;;5.88;2.80;;;;;;;7.21;100.00;101555.94;5354159;26;93788;-79
2024/05/04 03:10:17;;;;;;;7.82;4.10;;;;;;;7.21;100.00;101550.69;5355834;26;103948;-79
2024/05/04 03:12:42;;;;;;;10.90;3.50;;;;;;;7.23;100.00;101556.78;5354419;26;94762;-79
2024/05/04 03:15:08;;;;;;;10.50;3.80;;;;;;;7.21;100.00;101551.56;5354416;26;93753;-78
2024/05/04 03:17:33;;;;;;;8.30;3.55;;;;;;;7.16;100.00;101549.91;5355256;26;94611;-78
2024/05/04 03:19:58;;;;;;;11.60;3.65;;;;;;;6.95;100.00;101517.09;5361421;26;104799;-78
2024/05/04 03:22:24;;;;;;;6.60;3.40;;;;;;;7.12;100.00;101556.97;5357831;26;94112;-78
2024/05/04 03:24:52;;;;;;;7.90;3.72;;;;;;;7.13;100.00;101558.66;5358239;26;94646;-78
2024/05/04 03:27:18;;;;;;;6.53;3.33;;;;;;;7.07;100.00;101548.28;5358981;26;94367;-77
2024/05/04 03:29:43;;;;;;;8.77;3.63;;;;;;;7.05;100.00;101545.72;5353877;26;94560;-78
2024/05/04 03:32:27;;;;;;;7.40;3.78;;;;;;;7.08;100.00;101552.66;5355209;26;95282;-77
2024/05/04 03:34:53;;;;;;;7.87;3.37;;;;;;;7.06;100.00;101547.44;5356769;26;93756;-77
2024/05/04 03:37:21;;;;;;;8.43;3.72;;;;;;;7.03;100.00;101544.00;5356285;26;94222;-77
2024/05/04 03:39:46;;;;;;;10.18;3.85;;;;;;;7.02;100.00;101547.50;5354167;26;96479;-78
2024/05/04 03:42:12;;;;;;;10.60;4.15;;;;;;;6.89;100.00;101530.28;5388430;26;94587;-78
2024/05/04 03:44:37;;;;;;;6.80;3.45;;;;;;;6.97;100.00;101544.13;5397323;26;94203;-78
2024/05/04 03:47:03;;;;;;;6.10;2.95;;;;;;;6.99;100.00;101558.03;5394233;26;101349;-78
2024/05/04 03:49:28;;;;;;;10.60;4.20;;;;;;;6.74;100.00;101518.31;5384033;26;103158;-77
2024/05/04 03:51:53;;;;;;;9.68;4.18;;;;;;;6.92;100.00;101557.28;5363842;26;94509;-77
2024/05/04 03:54:19;;;;;;;7.70;3.80;;;;;;;6.90;100.00;101555.56;5390977;26;93794;-78
2024/05/04 03:56:45;;;;;;;8.57;3.65;;;;;;;6.92;100.00;101569.47;5392494;25;93780;-78
2024/05/04 03:59:10;;;;;;;5.05;2.67;;;;;;;6.89;100.00;101569.56;5364698;26;94576;-78
2024/05/04 04:01:35;;;;;;;7.28;3.35;;;;;;;6.81;100.00;101562.69;5362778;26;94471;-78
2024/05/04 04:04:01;;;;;;;8.60;3.58;;;;;;;6.72;100.00;101543.63;5388185;26;93765;-78
2024/05/04 04:06:26;;;;;;;11.65;4.03;;;;;;;6.71;100.00;101539.28;5362745;26;110345;-77
2024/05/04 04:08:51;;;;;;;9.10;3.53;;;;;;;6.85;100.00;101571.34;5389475;26;94612;-77
2024/05/04 04:11:17;;;;;;;9.07;3.85;;;;;;;6.82;100.00;101568.78;5397717;25;94338;-78
2024/05/04 04:13:42;;;;;;;10.32;4.45;;;;;;;6.72;100.00;101549.72;5392627;26;93809;-78
2024/05/04 04:16:07;;;;;;;7.40;3.40;;;;;;;6.81;100.00;101574.91;5362363;26;94432;-77
2024/05/04 04:18:33;;;;;;;9.18;3.85;;;;;;;6.73;100.00;101558.47;5368035;26;94231;-78
2024/05/04 04:20:59;;;;;;;8.07;3.90;;;;;;;6.69;100.00;101551.50;5394824;26;94578;-78
2024/05/04 04:23:25;;;;;;;10.52;3.38;;;;;;;6.73;100.00;101558.47;5365587;26;93744;-77
2024/05/04 04:25:50;;;;;;;8.45;3.55;;;;;;;6.83;100.00;101583.56;5393336;26;97852;-78
2024/05/04 04:28:15;;;;;;;8.90;3.95;;;;;;;6.81;100.00;101585.38;5391958;26;94640;-79
2024/05/04 04:30:40;;;;;;;7.05;3.42;;;;;;;6.79;100.00;101579.28;5390113;26;95257;-79
2024/05/04 04:33:06;;;;;;;9.10;4.32;;;;;;;6.73;100.00;101568.91;5367846;26;97574;-80
2024/05/04 04:35:31;;;;;;;10.57;4.47;;;;;;;6.79;100.00;101574.91;5374205;26;111787;-79
2024/05/04 04:37:56;;;;;;;9.38;4.10;;;;;;;6.74;100.00;101571.50;5403404;26;94712;-78
2024/05/04 04:40:22;;;;;;;7.90;4.00;;;;;;;6.77;100.00;101581.94;5401890;26;94299;-78
2024/05/04 04:42:47;;;;;;;9.48;4.13;;;;;;;6.74;100.00;101573.25;5397144;26;102517;-79
2024/05/04 04:45:12;;;;;;;8.52;3.85;;;;;;;6.64;100.00;101553.34;5394065;26;93742;-77
2024/05/04 04:47:38;;;;;;;9.32;3.78;;;;;;;6.61;100.00;101554.25;5391975;26;94656;-78
2024/05/04 04:50:03;;;;;;;9.18;3.95;;;;;;;6.79;100.00;101587.13;5388408;26;104842;-78
2024/05/04 04:52:29;;;;;;;7.78;3.95;;;;;;;6.76;100.00;101585.41;5359047;26;93725;-77
2024/05/04 04:54:54;;;;;;;10.65;3.70;;;;;;;6.73;100.00;101585.47;5365309;26;94563;-77
2024/05/04 04:57:23;;;;;;;10.02;4.32;;;;;;;6.67;100.00;101572.47;5395673;26;94731;-78
2024/05/04 04:59:53;;;;;;;11.35;4.88;;;;;;;6.80;100.00;101594.09;5395324;26;96149;-77
2024/05/04 05:02:19;;;;;;;8.88;4.47;;;;;;;6.83;100.00;101597.53;5390301;26;93788;-78
2024/05/04 05:04:45;;;;;;;8.60;4.72;;;;;;;6.81;100.00;101586.22;5360325;26;93771;-78
2024/05/04 05:07:10;;;;;;;8.73;4.03;;;;;;;6.78;100.00;101582.78;5360134;26;96629;-78
2024/05/04 05:09:35;;;;;;;9.80;5.05;;;;;;;6.83;100.00;101597.53;5387578;26;94683;-77
2024/05/04 05:12:01;;;;;;;10.13;4.63;;;;;;;6.67;100.00;101558.53;5365967;26;93849;-78
2024/05/04 05:14:26;;;;;;;11.80;5.68;;;;;;;6.86;100.00;101594.00;5392136;26;104334;-78
2024/05/04 05:16:51;;;;;;;15.93;6.68;;;;;;;6.92;100.00;101600.88;5365798;26;123821;-78
2024/05/04 05:19:17;;;;;;;12.52;6.10;;;;;;;6.94;100.00;101597.38;5394225;26;94560;-77
2024/05/04 05:21:48;;;;;;;10.77;5.50;;;;;;;6.98;100.00;101598.19;5363588;26;93894;-77
2024/05/04 05:24:14;;;;;;;14.15;5.95;;;;;;;6.94;100.00;101591.28;5396712;26;93783;-78
2024/05/04 05:26:39;;;;;;;11.88;4.97;;;;;;;7.05;100.00;101603.31;5363018;26;94585;-78
2024/05/04 05:29:04;;;;;;;13.05;5.97;;;;;;;7.09;100.00;101598.88;5365114;26;95675;-78
2024/05/04 05:31:30;;;;;;;15.43;6.30;;;;;;;6.91;100.00;101558.16;5360726;26;106246;-78
2024/05/04 05:33:55;;;;;;;15.48;6.07;;;;;;;7.14;100.00;101590.97;5391210;26;93777;-79
2024/05/04 05:36:20;;;;;;;13.57;6.15;;;;;;;7.14;100.00;101580.47;5387117;26;94283;-79
2024/05/04 05:38:46;;;;;;;12.85;6.35;;;;;;;7.24;100.00;101592.53;5391498;26;94045;-79
2024/05/04 05:41:12;;;;;;;26.58;13.25;;;;;;;7.18;100.00;101584.78;5389890;26;93763;-78
2024/05/04 05:43:37;;;;;;;26.85;13.70;;;;;;;7.26;100.00;101591.59;5395747;26;94668;-79
2024/05/04 05:46:04;;;;;;;21.98;9.68;;;;;;;7.34;100.00;101591.47;5360190;26;96223;-78
2024/05/04 05:48:29;;;;;;;16.77;8.30;;;;;;;7.47;100.00;101605.25;5392282;26;94704;-78
2024/05/04 05:50:54;;;;;;;14.88;8.43;;;;;;;7.57;100.00;101612.03;5360636;26;93761;-78
2024/05/04 05:53:23;;;;;;;19.10;8.60;;;;;;;7.69;100.00;101605.75;5361794;26;99528;-78
2024/05/04 05:55:48;;;;;;;21.17;10.57;;;;;;;7.78;100.00;101598.56;5393177;26;96562;-78
2024/05/04 05:58:13;;;;;;;20.30;10.95;;;;;;;7.98;100.00;101606.03;5391764;26;94196;-78
2024/05/04 06:00:39;;;;;;;23.75;11.77;;;;;;;8.11;100.00;101600.56;5388038;26;93881;-78
2024/05/04 06:03:04;;;;;;;21.42;11.82;;;;;;;8.28;100.00;101601.94;5360883;26;94818;-78
2024/05/04 06:05:29;;;;;;;25.10;10.60;;;;;;;8.49;100.00;101605.94;5355571;26;100112;-78
2024/05/04 06:07:55;;;;;;;16.33;9.32;;;;;;;8.62;100.00;101603.03;5361118;26;108896;-78
2024/05/04 06:10:23;;;;;;;17.83;9.85;;;;;;;8.69;100.00;101594.13;5360096;26;93743;-78
2024/05/04 06:12:48;;;;;;;19.95;9.75;;;;;;;8.88;100.00;101608.56;5358442;26;114987;-78
2024/05/04 06:15:13;;;;;;;19.42;10.68;;;;;;;8.99;100.00;101613.53;5388884;26;108338;-77
2024/05/04 06:17:39;;;;;;;16.92;10.40;;;;;;;9.04;100.00;101602.03;5363402;26;97580;-78
2024/05/04 06:20:05;;;;;;;19.88;9.70;;;;;;;9.21;100.00;101606.88;5388727;26;94367;-78
2024/05/04 06:22:30;;;;;;;14.52;8.90;;;;;;;9.38;100.00;101606.50;5360305;26;94982;-78
2024/05/04 06:24:55;;;;;;;15.70;8.63;;;;;;;9.46;100.00;101603.66;5391295;26;94581;-78
2024/05/04 06:27:22;;;;;;;15.95;9.07;;;;;;;9.74;100.00;101603.78;5389600;26;94545;-78
2024/05/04 06:29:48;;;;;;;18.30;8.30;;;;;;;9.91;100.00;101606.81;5392639;26;93817;-78
2024/05/04 06:32:13;;;;;;;15.65;8.88;;;;;;;9.97;100.00;101584.75;5359679;26;93889;-78
2024/05/04 06:34:40;;;;;;;17.73;8.90;;;;;;;10.19;100.00;101596.41;5388733;26;94668;-78
2024/05/04 06:37:06;;;;;;;16.17;7.53;;;;;;;10.37;100.00;101608.19;5393112;26;95321;-78
2024/05/04 06:39:31;;;;;;;17.40;9.15;;;;;;;10.34;100.00;101596.88;5388104;25;93924;-78
2024/05/04 06:41:57;;;;;;;14.20;7.75;;;;;;;10.56;100.00;101616.41;5360983;26;93903;-79
2024/05/04 06:44:22;;;;;;;15.95;6.97;;;;;;;10.52;100.00;101597.19;5390512;26;94313;-78
2024/05/04 06:46:47;;;;;;;15.27;7.75;;;;;;;10.70;100.00;101622.13;5358547;26;96338;-78
2024/05/04 06:49:13;;;;;;;13.25;6.30;;;;;;;10.80;100.00;101616.56;5360709;26;95006;-78
2024/05/04 06:51:38;;;;;;;14.15;7.50;;;;;;;10.85;100.00;101620.78;5362092;26;96000;-79
2024/05/04 06:54:04;;;;;;;13.68;7.57;;;;;;;10.87;100.00;101600.53;5392207;26;95855;-79
2024/05/04 06:56:29;;;;;;;18.23;8.52;;;;;;;11.14;100.00;101627.75;5391768;26;94349;-79
2024/05/04 06:58:55;;;;;;;16.38;8.55;;;;;;;11.09;100.00;101607.75;5389178;26;93964;-78
2024/05/04 07:01:20;;;;;;;13.63;7.72;;;;;;;11.35;100.00;101631.50;5385999;26;94835;-79
2024/05/04 07:03:45;;;;;;;16.58;9.10;;;;;;;11.43;100.00;101628.59;5388730;25;111359;-79
2024/05/04 07:06:11;;;;;;;14.85;8.98;;;;;;;11.47;100.00;101627.59;5389870;26;94655;-79
2024/05/04 07:08:37;;;;;;;15.98;8.68;;;;;;;11.31;100.00;101592.97;5390463;26;93881;-79
2024/05/04 07:11:03;;;;;;;14.13;8.32;;;;;;;11.55;100.00;101632.59;5390385;26;94490;-79
2024/05/04 07:13:31;;;;;;;12.95;8.35;;;;;;;11.51;100.00;101618.66;5385456;26;94733;-79
2024/05/04 07:15:57;;;;;;;14.20;8.90;;;;;;;11.72;100.00;101635.50;5391345;26;94879;-79
2024/05/04 07:18:22;;;;;;;13.98;8.43;;;;;;;11.78;100.00;101632.69;5396003;26;94422;-79
2024/05/04 07:20:47;;;;;;;14.35;8.52;;;;;;;11.82;100.00;101630.78;5363712;26;109382;-79
2024/05/04 07:23:14;;;;;;;15.60;8.63;;;;;;;11.88;100.00;101636.75;5396279;26;94635;-79
2024/05/04 07:25:39;;;;;;;16.58;8.73;;;;;;;11.95;100.00;101640.03;5400150;26;94403;-79
2024/05/04 07:28:04;;;;;;;11.75;7.28;;;;;;;11.93;100.00;101628.69;5394659;26;93872;-81
2024/05/04 07:30:30;;;;;;;12.73;7.28;;;;;;;12.05;100.00;101638.78;5395284;26;95781;-80
2024/05/04 07:32:55;;;;;;;12.55;6.80;;;;;;;12.12;100.00;101637.66;5393832;26;94668;-79
2024/05/04 07:35:20;;;;;;;11.98;7.68;;;;;;;12.17;100.00;101627.78;5359194;26;118207;-79
2024/05/04 07:37:46;;;;;;;15.93;7.43;;;;;;;12.29;100.00;101621.19;5363277;26;94084;-80
2024/05/04 07:40:11;;;;;;;13.95;7.30;;;;;;;12.47;100.00;101622.28;5388818;25;111088;-80
2024/05/04 07:42:36;;;;;;;13.05;7.10;;;;;;;12.56;100.00;101606.06;5391205;26;94677;-79
2024/05/04 07:45:03;;;;;;;12.20;6.55;;;;;;;12.80;100.00;101625.44;5390781;26;94645;-80
2024/05/04 07:47:28;;;;;;;11.73;6.50;;;;;;;12.77;100.00;101604.41;5389381;26;93839;-80
2024/05/04 07:49:57;;;;;;;11.32;6.97;;;;;;;12.81;100.00;101595.44;5390417;26;95933;-83
2024/05/04 07:52:22;;;;;;;12.57;6.75;;;;;;;12.91;100.00;101603.84;5359044;26;94685;-80
2024/05/04 07:54:49;;;;;;;11.75;6.30;;;;;;;13.01;100.00;101597.28;5395232;26;94178;-78
2024/05/04 07:57:14;;;;;;;12.05;7.25;;;;;;;13.16;100.00;101611.66;5395949;26;94800;-78
2024/05/04 07:59:40;;;;;;;10.52;6.28;;;;;;;13.25;100.00;101616.59;5371211;26;93949;-83
2024/05/04 08:02:05;;;;;;;16.17;7.47;;;;;;;13.29;100.00;101599.66;5366681;26;96119;-77
2024/05/04 08:04:30;;;;;;;12.95;5.78;;;;;;;13.48;100.00;101617.41;5407329;25;95470;-80
2024/05/04 08:06:56;;;;;;;8.85;5.55;;;;;;;13.51;100.00;101612.00;5402908;26;94270;-79
2024/05/04 08:09:24;;;;;;;11.43;5.78;;;;;;;13.40;100.00;101583.34;5366027;26;107862;-83
2024/05/04 08:11:50;;;;;;;10.93;6.30;;;;;;;13.30;100.00;101567.03;5362843;26;94710;-78
2024/05/04 08:14:16;;;;;;;13.18;6.80;;;;;;;13.56;100.00;101610.88;5398727;26;95541;-78
2024/05/04 08:16:45;;;;;;;10.57;5.75;;;;;;;13.67;100.00;101613.91;5395840;26;93822;-79
2024/05/04 08:19:10;;;;;;;9.48;6.07;;;;;;;13.76;100.00;101623.28;5363222;26;94760;-79
2024/05/04 08:21:36;;;;;;;11.88;6.05;;;;;;;13.81;100.00;101621.28;5396598;26;94653;-79
2024/05/04 08:24:03;;;;;;;14.77;6.45;;;;;;;13.70;100.00;101588.28;5370865;26;94377;-78
2024/05/04 08:26:28;;;;;;;12.55;5.30;;;;;;;13.81;100.00;101592.16;5390616;26;93863;-77
2024/05/04 08:28:55;;;;;;;13.13;6.70;;;;;;;14.03;100.00;101618.56;5361881;26;93889;-77
2024/05/04 08:31:20;;;;;;;13.02;6.03;;;;;;;14.15;100.00;101623.31;5385179;26;94590;-77
2024/05/04 08:33:46;;;;;;;15.20;6.53;;;;;;;14.17;100.00;101620.56;5391335;26;94682;-77
2024/05/04 08:36:12;;;;;;;12.43;6.40;;;;;;;14.09;100.00;101601.53;5388460;26;94940;-77
2024/05/04 08:38:38;;;;;;;11.55;5.85;;;;;;;14.25;100.00;101610.50;5389614;26;95024;-78
2024/05/04 08:41:04;;;;;;;9.13;5.95;;;;;;;14.26;100.00;101606.94;5355878;26;94358;-79
2024/05/04 08:43:30;;;;;;;12.43;6.20;;;;;;;14.38;100.00;101632.84;5358177;26;94178;-78
2024/05/04 08:45:58;;;;;;;10.75;5.53;;;;;;;14.31;100.00;101604.06;5350574;26;93920;-78
2024/05/04 08:48:24;;;;;;;9.50;5.80;;;;;;;14.51;100.00;101619.94;5355538;26;93832;-77
2024/05/04 08:50:51;;;;;;;10.00;6.10;;;;;;;14.59;100.00;101620.44;5353120;26;94843;-78
2024/05/04 08:53:16;;;;;;;11.85;6.15;;;;;;;14.71;100.00;101626.94;5354894;26;94683;-78
2024/05/04 08:55:42;;;;;;;10.10;5.53;;;;;;;14.78;100.00;101625.72;5357803;26;94845;-77
2024/05/04 08:58:09;;;;;;;13.63;6.30;;;;;;;14.83;100.00;101625.50;5359185;26;93901;-76
2024/05/04 09:00:35;;;;;;;11.98;5.53;;;;;;;14.87;100.00;101625.31;5358010;26;94413;-77
2024/05/04 09:03:02;;;;;;;12.38;5.03;;;;;;;14.88;100.00;101611.09;5356976;26;94551;-77
2024/05/04 09:05:32;;;;;;;7.15;5.03;;;;;;;14.90;100.00;101609.22;5391253;26;95054;-76
2024/05/04 09:07:59;;;;;;;11.20;5.28;;;;;;;14.89;100.00;101617.28;5355873;26;94867;-77
2024/05/04 09:10:24;;;;;;;9.75;5.38;;;;;;;14.87;100.00;101614.69;5352949;26;96596;-78
2024/05/04 09:12:51;;;;;;;12.98;5.53;;;;;;;14.86;100.00;101615.63;5352895;26;94614;-77
2024/05/04 09:15:16;;;;;;;7.78;4.57;;;;;;;14.86;100.00;101612.97;5358276;26;93878;-78
2024/05/04 09:17:42;;;;;;;9.38;4.53;;;;;;;14.93;100.00;101618.84;5352574;26;93917;-78
2024/05/04 09:20:08;;;;;;;11.60;5.85;;;;;;;14.98;100.00;101610.66;5355772;26;94994;-78
2024/05/04 09:22:34;;;;;;;7.35;4.07;;;;;;;15.03;100.00;101612.16;5396691;26;94945;-78
2024/05/04 09:24:59;;;;;;;11.18;4.80;;;;;;;15.10;100.00;101600.28;5355345;26;94337;-78
2024/05/04 09:27:29;;;;;;;11.73;5.07;;;;;;;15.29;100.00;101602.03;5381243;26;94638;-79
2024/05/04 09:29:54;;;;;;;7.95;4.18;;;;;;;15.36;100.00;101596.34;5334660;26;94749;-78
2024/05/04 09:32:24;;;;;;;11.35;3.97;;;;;;;15.44;100.00;101598.63;5353557;26;94694;-83
2024/05/04 09:35:01;;;;;;;10.88;4.75;;;;;;;15.54;100.00;101589.25;5357747;26;94712;-79
2024/05/04 09:37:38;;;;;;;7.03;4.60;;;;;;;15.63;100.00;101593.22;5391032;26;93999;-79
2024/05/04 09:40:06;;;;;;;9.43;4.45;;;;;;;15.60;100.00;101569.50;5362546;26;94688;-79
2024/05/04 09:42:33;;;;;;;10.95;4.03;;;;;;;15.81;100.00;101578.19;5395038;26;94944;-79
2024/05/04 09:44:59;;;;;;;8.23;4.07;;;;;;;15.92;100.00;101583.78;5395404;26;93817;-80
2024/05/04 09:47:31;;;;;;;8.15;3.80;;;;;;;15.96;100.00;101585.34;5390806;26;94003;-80
2024/05/04 09:49:59;;;;;;;6.53;3.63;;;;;;;16.01;100.00;101583.28;5393460;26;95309;-80
2024/05/04 09:52:26;;;;;;;7.78;3.30;;;;;;;15.97;100.00;101581.75;5394575;26;94429;-80
2024/05/04 09:54:58;;;;;;;7.72;3.67;;;;;;;15.99;100.00;101584.31;5394247;26;93878;-80
2024/05/04 09:57:33;;;;;;;8.57;3.92;;;;;;;15.98;100.00;101582.59;5392140;26;93876;-81
2024/05/04 10:00:06;;;;;;;6.40;3.33;;;;;;;15.93;100.00;101582.00;5370331;26;94945;-81
2024/05/04 10:02:34;;;;;;;6.45;3.45;;;;;;;15.88;100.00;101571.63;5371763;26;94835;-81
2024/05/04 10:05:01;;;;;;;7.63;3.50;;;;;;;15.79;100.00;101557.00;5395758;26;94811;-80
2024/05/04 10:07:28;;;;;;;7.85;2.92;;;;;;;15.82;100.00;101559.50;5388341;26;94948;-80
2024/05/04 10:09:56;;;;;;;8.13;3.30;;;;;;;15.79;100.00;101561.47;5371471;26;97401;-80
2024/05/04 10:12:23;;;;;;;7.35;2.97;;;;;;;15.81;100.00;101579.03;5390268;26;95795;-80
2024/05/04 10:14:48;;;;;;;5.55;3.10;;;;;;;15.76;100.00;101567.81;5362382;26;93911;-81
2024/05/04 10:17:25;;;;;;;6.90;2.88;;;;;;;15.58;100.00;101545.69;5365886;26;93925;-81
2024/05/04 10:20:01;;;;;;;7.63;3.03;;;;;;;15.74;100.00;101566.16;5401621;26;94721;-80
2024/05/04 10:22:26;;;;;;;6.65;2.72;;;;;;;15.79;100.00;101577.41;5395774;26;95057;-82
2024/05/04 10:24:51;;;;;;;5.47;2.45;;;;;;;15.76;100.00;101581.09;5390415;26;93860;-80
2024/05/04 10:27:19;;;;;;;5.75;2.00;;;;;;;15.75;100.00;101587.31;5362499;26;93984;-80
2024/05/04 10:29:44;;;;;;;4.43;1.58;;;;;;;15.77;100.00;101572.19;5386635;26;94158;-80
2024/05/04 10:32:10;;;;;;;5.80;1.60;;;;;;;15.76;100.00;101573.13;5385805;26;94693;-80
2024/05/04 10:34:36;;;;;;;4.05;1.95;;;;;;;15.65;100.00;101548.03;5393738;26;93811;-79
2024/05/04 10:37:02;;;;;;;3.35;1.83;;;;;;;15.68;100.00;101570.00;5390107;26;94376;-79
2024/05/04 10:39:40;;;;;;;7.60;2.88;;;;;;;15.81;100.00;101567.56;5359719;26;94629;-79
2024/05/04 10:42:05;;;;;;;5.60;1.95;;;;;;;15.74;100.00;101540.47;5361984;26;94729;-80
2024/05/04 10:44:34;;;;;;;4.22;1.55;;;;;;;15.75;100.00;101528.91;5361842;26;95024;-80
2024/05/04 10:47:00;;;;;;;4.35;2.00;;;;;;;16.08;100.00;101560.78;5372205;26;93934;-81
2024/05/04 10:49:26;;;;;;;4.47;2.00;;;;;;;16.22;100.00;101557.38;5367995;26;94715;-80
2024/05/04 10:51:52;;;;;;;4.60;1.92;;;;;;;16.36;100.00;101548.63;5367554;26;96739;-81
2024/05/04 10:54:19;;;;;;;4.75;2.25;;;;;;;16.47;100.00;101550.72;5366163;26;94484;-82
2024/05/04 10:56:44;;;;;;;5.47;2.38;;;;;;;16.48;100.00;101542.63;5393056;26;93992;-82
2024/05/04 10:59:10;;;;;;;5.40;2.30;;;;;;;16.52;100.00;101546.84;5390392;26;96364;-81
2024/05/04 11:01:36;;;;;;;3.17;1.73;;;;;;;16.40;100.00;101525.41;5393908;26;95891;-81
2024/05/04 11:04:03;;;;;;;5.03;2.05;;;;;;;16.53;100.00;101540.59;5391461;25;94916;-80
2024/05/04 11:06:28;;;;;;;4.55;1.90;;;;;;;16.39;100.00;101521.91;5394622;25;93930;-80
2024/05/04 11:08:54;;;;;;;6.05;2.05;;;;;;;16.43;100.00;101536.72;5397754;26;95443;-79
2024/05/04 11:11:19;;;;;;;4.78;1.60;;;;;;;16.50;100.00;101550.53;5368453;26;96458;-80